sensor_id;sensor_type;location;lat;lon;timestamp;P1;durP1;ratioP1;P2;durP2;ratioP2
3379;SDS011;1703;51.964;7.642;2022-07-24T00:00:30;4.63;;;3.80;;
3379;SDS011;1703;51.964;7.642;2022-07-24T00:02:58;3.67;;;3.37;;
3379;SDS011;1703;51.964;7.642;2022-07-24T00:05:25;9.07;;;3.00;;
3379;SDS011;1703;51.964;7.642;2022-07-24T00:07:51;4.00;;;3.70;;
3379;SDS011;1703;51.964;7.642;2022-07-24T00:10:18;4.83;;;4.40;;
3379;SDS011;1703;51.964;7.642;2022-07-24T00:12:45;5.13;;;3.73;;
3379;SDS011;1703;51.964;7.642;2022-07-24T00:15:12;12.73;;;3.97;;
3379;SDS011;1703;51.964;7.642;2022-07-24T00:17:39;4.17;;;3.87;;
3379;SDS011;1703;51.964;7.642;2022-07-24T00:20:07;7.77;;;3.97;;
3379;SDS011;1703;51.964;7.642;2022-07-24T00:22:36;6.23;;;5.73;;
3379;SDS011;1703;51.964;7.642;2022-07-24T00:25:03;5.80;;;3.90;;
3379;SDS011;1703;51.964;7.642;2022-07-24T00:27:33;4.07;;;3.70;;
3379;SDS011;1703;51.964;7.642;2022-07-24T00:29:59;3.43;;;3.23;;
3379;SDS011;1703;51.964;7.642;2022-07-24T00:32:26;4.73;;;3.40;;
3379;SDS011;1703;51.964;7.642;2022-07-24T00:34:53;7.93;;;4.37;;
3379;SDS011;1703;51.964;7.642;2022-07-24T00:37:21;3.57;;;3.30;;
3379;SDS011;1703;51.964;7.642;2022-07-24T00:39:48;4.23;;;3.83;;
3379;SDS011;1703;51.964;7.642;2022-07-24T00:42:15;7.23;;;4.13;;
3379;SDS011;1703;51.964;7.642;2022-07-24T00:44:41;4.13;;;3.73;;
3379;SDS011;1703;51.964;7.642;2022-07-24T00:47:08;4.40;;;4.00;;
3379;SDS011;1703;51.964;7.642;2022-07-24T00:49:35;6.10;;;4.10;;
3379;SDS011;1703;51.964;7.642;2022-07-24T00:52:02;8.10;;;3.87;;
3379;SDS011;1703;51.964;7.642;2022-07-24T00:54:30;4.43;;;3.63;;
3379;SDS011;1703;51.964;7.642;2022-07-24T00:56:57;4.77;;;4.27;;
3379;SDS011;1703;51.964;7.642;2022-07-24T00:59:24;5.17;;;4.67;;
3379;SDS011;1703;51.964;7.642;2022-07-24T01:01:51;4.50;;;4.10;;
3379;SDS011;1703;51.964;7.642;2022-07-24T01:04:17;4.50;;;4.10;;
3379;SDS011;1703;51.964;7.642;2022-07-24T01:06:45;4.97;;;4.57;;
3379;SDS011;1703;51.964;7.642;2022-07-24T01:09:13;5.40;;;5.00;;
3379;SDS011;1703;51.964;7.642;2022-07-24T01:11:42;4.40;;;4.03;;
3379;SDS011;1703;51.964;7.642;2022-07-24T01:14:09;5.70;;;4.40;;
3379;SDS011;1703;51.964;7.642;2022-07-24T01:16:37;9.67;;;5.70;;
3379;SDS011;1703;51.964;7.642;2022-07-24T01:19:04;6.47;;;4.20;;
3379;SDS011;1703;51.964;7.642;2022-07-24T01:21:32;4.53;;;4.10;;
3379;SDS011;1703;51.964;7.642;2022-07-24T01:23:59;4.37;;;3.90;;
3379;SDS011;1703;51.964;7.642;2022-07-24T01:26:26;5.60;;;4.30;;
3379;SDS011;1703;51.964;7.642;2022-07-24T01:28:53;5.57;;;4.17;;
3379;SDS011;1703;51.964;7.642;2022-07-24T01:31:19;10.80;;;4.90;;
3379;SDS011;1703;51.964;7.642;2022-07-24T01:33:46;4.73;;;3.83;;
3379;SDS011;1703;51.964;7.642;2022-07-24T01:36:13;7.57;;;5.63;;
3379;SDS011;1703;51.964;7.642;2022-07-24T01:38:41;4.73;;;4.23;;
3379;SDS011;1703;51.964;7.642;2022-07-24T01:41:08;5.77;;;4.60;;
3379;SDS011;1703;51.964;7.642;2022-07-24T01:43:35;7.83;;;4.63;;
3379;SDS011;1703;51.964;7.642;2022-07-24T01:46:02;4.23;;;3.90;;
3379;SDS011;1703;51.964;7.642;2022-07-24T01:48:28;7.23;;;4.47;;
3379;SDS011;1703;51.964;7.642;2022-07-24T01:50:55;4.63;;;4.20;;
3379;SDS011;1703;51.964;7.642;2022-07-24T01:53:22;5.37;;;4.00;;
3379;SDS011;1703;51.964;7.642;2022-07-24T01:55:50;7.87;;;4.73;;
3379;SDS011;1703;51.964;7.642;2022-07-24T01:58:18;8.83;;;4.33;;
3379;SDS011;1703;51.964;7.642;2022-07-24T02:00:45;4.90;;;4.50;;
3379;SDS011;1703;51.964;7.642;2022-07-24T02:03:12;5.30;;;4.80;;
3379;SDS011;1703;51.964;7.642;2022-07-24T02:05:39;4.77;;;4.17;;
3379;SDS011;1703;51.964;7.642;2022-07-24T02:08:06;4.87;;;4.47;;
3379;SDS011;1703;51.964;7.642;2022-07-24T02:10:33;4.03;;;3.73;;
3379;SDS011;1703;51.964;7.642;2022-07-24T02:13:02;4.83;;;4.40;;
3379;SDS011;1703;51.964;7.642;2022-07-24T02:15:28;4.80;;;4.33;;
3379;SDS011;1703;51.964;7.642;2022-07-24T02:17:56;5.00;;;4.50;;
3379;SDS011;1703;51.964;7.642;2022-07-24T02:20:25;5.40;;;4.90;;
3379;SDS011;1703;51.964;7.642;2022-07-24T02:22:52;7.70;;;5.53;;
3379;SDS011;1703;51.964;7.642;2022-07-24T02:25:19;5.13;;;4.63;;
3379;SDS011;1703;51.964;7.642;2022-07-24T02:27:46;14.63;;;5.17;;
3379;SDS011;1703;51.964;7.642;2022-07-24T02:30:15;6.60;;;4.80;;
3379;SDS011;1703;51.964;7.642;2022-07-24T02:32:44;5.30;;;4.90;;
3379;SDS011;1703;51.964;7.642;2022-07-24T02:35:11;5.73;;;5.27;;
3379;SDS011;1703;51.964;7.642;2022-07-24T02:37:38;5.77;;;5.27;;
3379;SDS011;1703;51.964;7.642;2022-07-24T02:40:07;8.27;;;5.40;;
3379;SDS011;1703;51.964;7.642;2022-07-24T02:42:35;5.43;;;4.93;;
3379;SDS011;1703;51.964;7.642;2022-07-24T02:45:02;7.40;;;5.80;;
3379;SDS011;1703;51.964;7.642;2022-07-24T02:47:31;6.67;;;5.90;;
3379;SDS011;1703;51.964;7.642;2022-07-24T02:49:58;7.23;;;5.63;;
3379;SDS011;1703;51.964;7.642;2022-07-24T02:52:25;6.13;;;5.57;;
3379;SDS011;1703;51.964;7.642;2022-07-24T02:54:52;6.57;;;4.90;;
3379;SDS011;1703;51.964;7.642;2022-07-24T02:57:18;6.57;;;5.77;;
3379;SDS011;1703;51.964;7.642;2022-07-24T02:59:45;6.77;;;5.40;;
3379;SDS011;1703;51.964;7.642;2022-07-24T03:02:17;6.43;;;5.53;;
3379;SDS011;1703;51.964;7.642;2022-07-24T03:04:46;5.97;;;5.17;;
3379;SDS011;1703;51.964;7.642;2022-07-24T03:07:16;6.70;;;5.80;;
3379;SDS011;1703;51.964;7.642;2022-07-24T03:09:44;6.40;;;5.80;;
3379;SDS011;1703;51.964;7.642;2022-07-24T03:12:14;6.47;;;5.87;;
3379;SDS011;1703;51.964;7.642;2022-07-24T03:14:42;6.10;;;5.40;;
3379;SDS011;1703;51.964;7.642;2022-07-24T03:17:09;7.37;;;6.70;;
3379;SDS011;1703;51.964;7.642;2022-07-24T03:19:44;8.50;;;5.10;;
3379;SDS011;1703;51.964;7.642;2022-07-24T03:22:15;6.37;;;5.80;;
3379;SDS011;1703;51.964;7.642;2022-07-24T03:24:42;7.23;;;5.80;;
3379;SDS011;1703;51.964;7.642;2022-07-24T03:27:09;7.00;;;6.30;;
3379;SDS011;1703;51.964;7.642;2022-07-24T03:29:37;5.80;;;5.30;;
3379;SDS011;1703;51.964;7.642;2022-07-24T03:32:05;12.90;;;6.60;;
3379;SDS011;1703;51.964;7.642;2022-07-24T03:34:32;6.43;;;5.83;;
3379;SDS011;1703;51.964;7.642;2022-07-24T03:37:02;8.23;;;5.97;;
3379;SDS011;1703;51.964;7.642;2022-07-24T03:39:32;8.07;;;6.87;;
3379;SDS011;1703;51.964;7.642;2022-07-24T03:42:01;7.27;;;6.57;;
3379;SDS011;1703;51.964;7.642;2022-07-24T03:44:33;5.97;;;5.47;;
3379;SDS011;1703;51.964;7.642;2022-07-24T03:47:01;6.60;;;6.10;;
3379;SDS011;1703;51.964;7.642;2022-07-24T03:49:29;9.43;;;6.97;;
3379;SDS011;1703;51.964;7.642;2022-07-24T03:51:59;9.33;;;7.07;;
3379;SDS011;1703;51.964;7.642;2022-07-24T03:54:31;7.13;;;6.43;;
3379;SDS011;1703;51.964;7.642;2022-07-24T03:56:59;10.17;;;6.80;;
3379;SDS011;1703;51.964;7.642;2022-07-24T03:59:26;7.57;;;6.87;;
3379;SDS011;1703;51.964;7.642;2022-07-24T04:01:54;8.57;;;7.10;;
3379;SDS011;1703;51.964;7.642;2022-07-24T04:04:22;7.50;;;6.60;;
3379;SDS011;1703;51.964;7.642;2022-07-24T04:06:52;10.97;;;6.23;;
3379;SDS011;1703;51.964;7.642;2022-07-24T04:09:21;7.07;;;6.40;;
3379;SDS011;1703;51.964;7.642;2022-07-24T04:11:54;11.13;;;6.23;;
3379;SDS011;1703;51.964;7.642;2022-07-24T04:14:21;10.53;;;7.73;;
3379;SDS011;1703;51.964;7.642;2022-07-24T04:16:48;9.60;;;7.40;;
3379;SDS011;1703;51.964;7.642;2022-07-24T04:19:17;10.53;;;7.00;;
3379;SDS011;1703;51.964;7.642;2022-07-24T04:21:44;9.90;;;7.70;;
3379;SDS011;1703;51.964;7.642;2022-07-24T04:24:12;9.10;;;6.60;;
3379;SDS011;1703;51.964;7.642;2022-07-24T04:26:39;9.10;;;8.13;;
3379;SDS011;1703;51.964;7.642;2022-07-24T04:29:10;7.20;;;6.53;;
3379;SDS011;1703;51.964;7.642;2022-07-24T04:31:36;8.70;;;7.43;;
3379;SDS011;1703;51.964;7.642;2022-07-24T04:34:07;8.60;;;7.70;;
3379;SDS011;1703;51.964;7.642;2022-07-24T04:36:34;8.47;;;7.67;;
3379;SDS011;1703;51.964;7.642;2022-07-24T04:39:02;11.03;;;7.67;;
3379;SDS011;1703;51.964;7.642;2022-07-24T04:41:29;9.33;;;8.47;;
3379;SDS011;1703;51.964;7.642;2022-07-24T04:43:57;9.93;;;7.90;;
3379;SDS011;1703;51.964;7.642;2022-07-24T04:46:26;9.37;;;8.43;;
3379;SDS011;1703;51.964;7.642;2022-07-24T04:48:53;8.43;;;7.60;;
3379;SDS011;1703;51.964;7.642;2022-07-24T04:51:23;9.50;;;7.23;;
3379;SDS011;1703;51.964;7.642;2022-07-24T04:53:50;8.43;;;7.57;;
3379;SDS011;1703;51.964;7.642;2022-07-24T04:56:18;7.27;;;6.50;;
3379;SDS011;1703;51.964;7.642;2022-07-24T04:58:52;8.90;;;7.87;;
3379;SDS011;1703;51.964;7.642;2022-07-24T05:04:11;8.33;;;7.00;;
3379;SDS011;1703;51.964;7.642;2022-07-24T05:06:38;7.90;;;6.90;;
3379;SDS011;1703;51.964;7.642;2022-07-24T05:09:08;8.03;;;7.20;;
3379;SDS011;1703;51.964;7.642;2022-07-24T05:11:35;9.87;;;7.53;;
3379;SDS011;1703;51.964;7.642;2022-07-24T05:14:04;14.33;;;7.40;;
3379;SDS011;1703;51.964;7.642;2022-07-24T05:16:33;8.97;;;8.07;;
3379;SDS011;1703;51.964;7.642;2022-07-24T05:19:16;7.47;;;6.20;;
3379;SDS011;1703;51.964;7.642;2022-07-24T05:21:51;8.13;;;6.63;;
3379;SDS011;1703;51.964;7.642;2022-07-24T05:25:03;11.50;;;6.30;;
3379;SDS011;1703;51.964;7.642;2022-07-24T05:28:00;8.67;;;7.30;;
3379;SDS011;1703;51.964;7.642;2022-07-24T05:31:08;6.27;;;5.67;;
3379;SDS011;1703;51.964;7.642;2022-07-24T05:34:02;7.57;;;6.83;;
3379;SDS011;1703;51.964;7.642;2022-07-24T05:36:58;7.50;;;6.80;;
3379;SDS011;1703;51.964;7.642;2022-07-24T05:39:45;8.80;;;6.03;;
3379;SDS011;1703;51.964;7.642;2022-07-24T05:43:00;11.67;;;5.83;;
3379;SDS011;1703;51.964;7.642;2022-07-24T05:46:02;7.03;;;6.17;;
3379;SDS011;1703;51.964;7.642;2022-07-24T05:48:47;6.67;;;6.07;;
3379;SDS011;1703;51.964;7.642;2022-07-24T05:51:41;8.33;;;5.57;;
3379;SDS011;1703;51.964;7.642;2022-07-24T05:54:22;8.03;;;6.97;;
3379;SDS011;1703;51.964;7.642;2022-07-24T05:57:15;6.07;;;5.57;;
3379;SDS011;1703;51.964;7.642;2022-07-24T05:59:52;7.87;;;5.77;;
3379;SDS011;1703;51.964;7.642;2022-07-24T06:02:26;7.57;;;6.57;;
3379;SDS011;1703;51.964;7.642;2022-07-24T06:04:58;6.80;;;5.13;;
3379;SDS011;1703;51.964;7.642;2022-07-24T06:07:39;6.50;;;5.30;;
3379;SDS011;1703;51.964;7.642;2022-07-24T06:10:26;7.53;;;6.10;;
3379;SDS011;1703;51.964;7.642;2022-07-24T06:13:28;10.50;;;6.43;;
3379;SDS011;1703;51.964;7.642;2022-07-24T06:19:36;5.50;;;5.00;;
3379;SDS011;1703;51.964;7.642;2022-07-24T06:22:22;9.80;;;6.97;;
3379;SDS011;1703;51.964;7.642;2022-07-24T06:25:03;6.30;;;5.27;;
3379;SDS011;1703;51.964;7.642;2022-07-24T06:27:45;8.90;;;5.60;;
3379;SDS011;1703;51.964;7.642;2022-07-24T06:30:20;6.73;;;5.83;;
3379;SDS011;1703;51.964;7.642;2022-07-24T06:32:51;7.37;;;5.40;;
3379;SDS011;1703;51.964;7.642;2022-07-24T06:35:21;5.90;;;5.40;;
3379;SDS011;1703;51.964;7.642;2022-07-24T06:37:48;9.30;;;5.20;;
3379;SDS011;1703;51.964;7.642;2022-07-24T06:40:36;6.47;;;5.07;;
3379;SDS011;1703;51.964;7.642;2022-07-24T06:43:09;6.47;;;5.70;;
3379;SDS011;1703;51.964;7.642;2022-07-24T06:45:48;6.20;;;5.60;;
3379;SDS011;1703;51.964;7.642;2022-07-24T06:48:30;6.50;;;5.40;;
3379;SDS011;1703;51.964;7.642;2022-07-24T06:51:05;6.40;;;4.60;;
3379;SDS011;1703;51.964;7.642;2022-07-24T06:53:36;4.83;;;4.43;;
3379;SDS011;1703;51.964;7.642;2022-07-24T06:56:16;5.87;;;5.13;;
3379;SDS011;1703;51.964;7.642;2022-07-24T06:58:50;5.97;;;5.43;;
3379;SDS011;1703;51.964;7.642;2022-07-24T07:01:21;8.20;;;4.70;;
3379;SDS011;1703;51.964;7.642;2022-07-24T07:03:54;7.73;;;4.93;;
3379;SDS011;1703;51.964;7.642;2022-07-24T07:06:25;6.57;;;4.93;;
3379;SDS011;1703;51.964;7.642;2022-07-24T07:09:00;5.23;;;4.83;;
3379;SDS011;1703;51.964;7.642;2022-07-24T07:11:32;5.50;;;5.10;;
3379;SDS011;1703;51.964;7.642;2022-07-24T07:14:05;5.77;;;5.20;;
3379;SDS011;1703;51.964;7.642;2022-07-24T07:16:33;7.33;;;5.70;;
3379;SDS011;1703;51.964;7.642;2022-07-24T07:19:00;5.60;;;5.10;;
3379;SDS011;1703;51.964;7.642;2022-07-24T07:21:28;5.43;;;4.97;;
3379;SDS011;1703;51.964;7.642;2022-07-24T07:24:11;6.07;;;5.20;;
3379;SDS011;1703;51.964;7.642;2022-07-24T07:26:39;7.03;;;4.73;;
3379;SDS011;1703;51.964;7.642;2022-07-24T07:29:06;5.80;;;5.10;;
3379;SDS011;1703;51.964;7.642;2022-07-24T07:31:33;5.97;;;5.10;;
3379;SDS011;1703;51.964;7.642;2022-07-24T07:33:59;5.53;;;5.03;;
3379;SDS011;1703;51.964;7.642;2022-07-24T07:36:26;8.70;;;4.60;;
3379;SDS011;1703;51.964;7.642;2022-07-24T07:38:53;8.63;;;4.90;;
3379;SDS011;1703;51.964;7.642;2022-07-24T07:41:22;9.43;;;5.40;;
3379;SDS011;1703;51.964;7.642;2022-07-24T07:43:50;6.20;;;5.00;;
3379;SDS011;1703;51.964;7.642;2022-07-24T07:46:18;7.10;;;5.20;;
3379;SDS011;1703;51.964;7.642;2022-07-24T07:48:45;7.73;;;5.47;;
3379;SDS011;1703;51.964;7.642;2022-07-24T07:51:14;9.80;;;5.70;;
3379;SDS011;1703;51.964;7.642;2022-07-24T07:53:44;6.13;;;5.23;;
3379;SDS011;1703;51.964;7.642;2022-07-24T07:56:11;5.67;;;5.17;;
3379;SDS011;1703;51.964;7.642;2022-07-24T07:58:38;7.20;;;6.50;;
3379;SDS011;1703;51.964;7.642;2022-07-24T08:01:06;8.03;;;6.70;;
3379;SDS011;1703;51.964;7.642;2022-07-24T08:03:33;6.50;;;5.90;;
3379;SDS011;1703;51.964;7.642;2022-07-24T08:06:00;6.00;;;4.87;;
3379;SDS011;1703;51.964;7.642;2022-07-24T08:08:29;7.80;;;5.93;;
3379;SDS011;1703;51.964;7.642;2022-07-24T08:10:56;6.67;;;5.90;;
3379;SDS011;1703;51.964;7.642;2022-07-24T08:13:23;6.67;;;6.07;;
3379;SDS011;1703;51.964;7.642;2022-07-24T08:15:49;7.80;;;5.97;;
3379;SDS011;1703;51.964;7.642;2022-07-24T08:18:18;6.57;;;5.90;;
3379;SDS011;1703;51.964;7.642;2022-07-24T08:20:44;6.37;;;5.77;;
3379;SDS011;1703;51.964;7.642;2022-07-24T08:23:11;6.60;;;5.83;;
3379;SDS011;1703;51.964;7.642;2022-07-24T08:25:38;6.07;;;5.47;;
3379;SDS011;1703;51.964;7.642;2022-07-24T08:28:05;6.43;;;5.30;;
3379;SDS011;1703;51.964;7.642;2022-07-24T08:30:32;8.40;;;6.43;;
3379;SDS011;1703;51.964;7.642;2022-07-24T08:32:59;8.37;;;6.30;;
3379;SDS011;1703;51.964;7.642;2022-07-24T08:35:27;5.10;;;4.73;;
3379;SDS011;1703;51.964;7.642;2022-07-24T08:37:54;6.80;;;5.33;;
3379;SDS011;1703;51.964;7.642;2022-07-24T08:40:21;5.63;;;5.13;;
3379;SDS011;1703;51.964;7.642;2022-07-24T08:42:48;6.17;;;5.40;;
3379;SDS011;1703;51.964;7.642;2022-07-24T08:45:15;6.70;;;5.37;;
3379;SDS011;1703;51.964;7.642;2022-07-24T08:47:42;6.07;;;5.47;;
3379;SDS011;1703;51.964;7.642;2022-07-24T08:50:10;7.07;;;6.37;;
3379;SDS011;1703;51.964;7.642;2022-07-24T08:52:39;6.97;;;6.37;;
3379;SDS011;1703;51.964;7.642;2022-07-24T08:55:06;8.30;;;6.50;;
3379;SDS011;1703;51.964;7.642;2022-07-24T08:57:33;9.10;;;5.73;;
3379;SDS011;1703;51.964;7.642;2022-07-24T09:00:00;5.90;;;5.40;;
3379;SDS011;1703;51.964;7.642;2022-07-24T09:02:27;8.20;;;6.10;;
3379;SDS011;1703;51.964;7.642;2022-07-24T09:04:57;7.07;;;5.30;;
3379;SDS011;1703;51.964;7.642;2022-07-24T09:07:25;7.30;;;5.20;;
3379;SDS011;1703;51.964;7.642;2022-07-24T09:09:59;7.90;;;6.00;;
3379;SDS011;1703;51.964;7.642;2022-07-24T09:12:30;8.80;;;5.83;;
3379;SDS011;1703;51.964;7.642;2022-07-24T09:14:58;6.27;;;5.50;;
3379;SDS011;1703;51.964;7.642;2022-07-24T09:17:26;6.90;;;6.13;;
3379;SDS011;1703;51.964;7.642;2022-07-24T09:19:54;7.37;;;6.67;;
3379;SDS011;1703;51.964;7.642;2022-07-24T09:22:26;6.60;;;5.30;;
3379;SDS011;1703;51.964;7.642;2022-07-24T09:25:07;5.80;;;5.30;;
3379;SDS011;1703;51.964;7.642;2022-07-24T09:27:37;6.87;;;6.27;;
3379;SDS011;1703;51.964;7.642;2022-07-24T09:30:05;9.10;;;6.77;;
3379;SDS011;1703;51.964;7.642;2022-07-24T09:32:33;6.60;;;6.00;;
3379;SDS011;1703;51.964;7.642;2022-07-24T09:35:01;7.93;;;6.30;;
3379;SDS011;1703;51.964;7.642;2022-07-24T09:37:29;7.20;;;5.80;;
3379;SDS011;1703;51.964;7.642;2022-07-24T09:40:05;5.93;;;5.43;;
3379;SDS011;1703;51.964;7.642;2022-07-24T09:42:35;6.77;;;6.27;;
3379;SDS011;1703;51.964;7.642;2022-07-24T09:45:06;6.50;;;5.90;;
3379;SDS011;1703;51.964;7.642;2022-07-24T09:47:37;7.77;;;5.90;;
3379;SDS011;1703;51.964;7.642;2022-07-24T09:50:12;6.37;;;5.87;;
3379;SDS011;1703;51.964;7.642;2022-07-24T09:52:40;9.30;;;6.13;;
3379;SDS011;1703;51.964;7.642;2022-07-24T09:55:20;7.90;;;6.93;;
3379;SDS011;1703;51.964;7.642;2022-07-24T09:57:48;11.13;;;6.93;;
3379;SDS011;1703;51.964;7.642;2022-07-24T10:00:16;9.07;;;7.30;;
3379;SDS011;1703;51.964;7.642;2022-07-24T10:02:43;9.00;;;6.77;;
3379;SDS011;1703;51.964;7.642;2022-07-24T10:05:11;8.27;;;5.57;;
3379;SDS011;1703;51.964;7.642;2022-07-24T10:07:39;7.03;;;6.13;;
3379;SDS011;1703;51.964;7.642;2022-07-24T10:10:08;10.60;;;7.10;;
3379;SDS011;1703;51.964;7.642;2022-07-24T10:12:37;11.10;;;6.47;;
3379;SDS011;1703;51.964;7.642;2022-07-24T10:15:04;6.80;;;5.90;;
3379;SDS011;1703;51.964;7.642;2022-07-24T10:17:33;15.83;;;6.73;;
3379;SDS011;1703;51.964;7.642;2022-07-24T10:20:24;6.43;;;5.93;;
3379;SDS011;1703;51.964;7.642;2022-07-24T10:23:03;11.13;;;7.27;;
3379;SDS011;1703;51.964;7.642;2022-07-24T10:25:34;8.80;;;7.90;;
3379;SDS011;1703;51.964;7.642;2022-07-24T10:28:15;9.23;;;6.87;;
3379;SDS011;1703;51.964;7.642;2022-07-24T10:30:55;7.50;;;6.87;;
3379;SDS011;1703;51.964;7.642;2022-07-24T10:33:22;8.23;;;7.07;;
3379;SDS011;1703;51.964;7.642;2022-07-24T10:35:49;7.40;;;5.53;;
3379;SDS011;1703;51.964;7.642;2022-07-24T10:38:17;8.00;;;6.60;;
3379;SDS011;1703;51.964;7.642;2022-07-24T10:40:51;8.33;;;6.50;;
3379;SDS011;1703;51.964;7.642;2022-07-24T10:43:26;12.03;;;7.10;;
3379;SDS011;1703;51.964;7.642;2022-07-24T10:46:10;7.70;;;7.00;;
3379;SDS011;1703;51.964;7.642;2022-07-24T10:48:38;10.80;;;6.77;;
3379;SDS011;1703;51.964;7.642;2022-07-24T10:51:07;9.00;;;7.27;;
3379;SDS011;1703;51.964;7.642;2022-07-24T10:56:20;9.47;;;7.27;;
3379;SDS011;1703;51.964;7.642;2022-07-24T10:58:54;9.73;;;6.93;;
3379;SDS011;1703;51.964;7.642;2022-07-24T11:01:30;9.03;;;6.67;;
3379;SDS011;1703;51.964;7.642;2022-07-24T11:03:58;8.30;;;7.60;;
3379;SDS011;1703;51.964;7.642;2022-07-24T11:06:39;8.00;;;7.20;;
3379;SDS011;1703;51.964;7.642;2022-07-24T11:09:08;8.13;;;6.83;;
3379;SDS011;1703;51.964;7.642;2022-07-24T11:11:39;7.27;;;6.57;;
3379;SDS011;1703;51.964;7.642;2022-07-24T11:14:09;6.50;;;5.87;;
3379;SDS011;1703;51.964;7.642;2022-07-24T11:16:36;8.97;;;5.67;;
3379;SDS011;1703;51.964;7.642;2022-07-24T11:22:05;15.67;;;6.13;;
3379;SDS011;1703;51.964;7.642;2022-07-24T11:24:40;11.60;;;7.43;;
3379;SDS011;1703;51.964;7.642;2022-07-24T11:27:13;11.00;;;6.73;;
3379;SDS011;1703;51.964;7.642;2022-07-24T11:29:44;8.73;;;7.30;;
3379;SDS011;1703;51.964;7.642;2022-07-24T11:32:12;9.00;;;7.17;;
3379;SDS011;1703;51.964;7.642;2022-07-24T11:34:43;8.33;;;7.53;;
3379;SDS011;1703;51.964;7.642;2022-07-24T11:37:11;7.33;;;6.63;;
3379;SDS011;1703;51.964;7.642;2022-07-24T11:39:40;9.10;;;7.30;;
3379;SDS011;1703;51.964;7.642;2022-07-24T11:42:09;8.50;;;7.67;;
3379;SDS011;1703;51.964;7.642;2022-07-24T11:44:37;16.03;;;7.23;;
3379;SDS011;1703;51.964;7.642;2022-07-24T11:47:08;14.47;;;7.50;;
3379;SDS011;1703;51.964;7.642;2022-07-24T11:49:39;7.90;;;7.20;;
3379;SDS011;1703;51.964;7.642;2022-07-24T11:52:12;10.00;;;7.60;;
3379;SDS011;1703;51.964;7.642;2022-07-24T11:54:40;8.97;;;7.70;;
3379;SDS011;1703;51.964;7.642;2022-07-24T11:57:15;10.60;;;7.60;;
3379;SDS011;1703;51.964;7.642;2022-07-24T11:59:44;10.13;;;7.87;;
3379;SDS011;1703;51.964;7.642;2022-07-24T12:02:14;12.40;;;7.77;;
3379;SDS011;1703;51.964;7.642;2022-07-24T12:04:41;9.93;;;8.23;;
3379;SDS011;1703;51.964;7.642;2022-07-24T12:07:09;9.47;;;8.57;;
3379;SDS011;1703;51.964;7.642;2022-07-24T12:09:44;8.33;;;7.53;;
3379;SDS011;1703;51.964;7.642;2022-07-24T12:12:19;9.47;;;7.87;;
3379;SDS011;1703;51.964;7.642;2022-07-24T12:14:47;8.70;;;7.90;;
3379;SDS011;1703;51.964;7.642;2022-07-24T12:17:15;7.57;;;6.97;;
3379;SDS011;1703;51.964;7.642;2022-07-24T12:19:49;8.60;;;7.80;;
3379;SDS011;1703;51.964;7.642;2022-07-24T12:22:18;8.13;;;7.43;;
3379;SDS011;1703;51.964;7.642;2022-07-24T12:24:46;7.60;;;6.90;;
3379;SDS011;1703;51.964;7.642;2022-07-24T12:27:13;15.30;;;7.83;;
3379;SDS011;1703;51.964;7.642;2022-07-24T12:29:58;8.37;;;7.57;;
3379;SDS011;1703;51.964;7.642;2022-07-24T12:32:26;11.20;;;6.77;;
3379;SDS011;1703;51.964;7.642;2022-07-24T12:34:54;9.37;;;7.90;;
3379;SDS011;1703;51.964;7.642;2022-07-24T12:37:21;8.27;;;7.47;;
3379;SDS011;1703;51.964;7.642;2022-07-24T12:39:49;7.07;;;6.47;;
3379;SDS011;1703;51.964;7.642;2022-07-24T12:42:17;7.53;;;6.90;;
3379;SDS011;1703;51.964;7.642;2022-07-24T12:44:54;9.73;;;7.37;;
3379;SDS011;1703;51.964;7.642;2022-07-24T12:47:33;7.47;;;6.73;;
3379;SDS011;1703;51.964;7.642;2022-07-24T12:50:10;7.90;;;6.90;;
3379;SDS011;1703;51.964;7.642;2022-07-24T12:52:38;8.13;;;7.30;;
3379;SDS011;1703;51.964;7.642;2022-07-24T12:55:05;9.23;;;8.33;;
3379;SDS011;1703;51.964;7.642;2022-07-24T12:57:45;8.40;;;7.40;;
3379;SDS011;1703;51.964;7.642;2022-07-24T13:00:12;12.07;;;8.73;;
3379;SDS011;1703;51.964;7.642;2022-07-24T13:02:41;10.40;;;8.03;;
3379;SDS011;1703;51.964;7.642;2022-07-24T13:05:08;8.40;;;7.60;;
3379;SDS011;1703;51.964;7.642;2022-07-24T13:07:35;7.20;;;6.50;;
3379;SDS011;1703;51.964;7.642;2022-07-24T13:10:02;7.03;;;6.37;;
3379;SDS011;1703;51.964;7.642;2022-07-24T13:12:29;9.10;;;6.23;;
3379;SDS011;1703;51.964;7.642;2022-07-24T13:14:56;7.90;;;7.20;;
3379;SDS011;1703;51.964;7.642;2022-07-24T13:17:22;8.30;;;7.57;;
3379;SDS011;1703;51.964;7.642;2022-07-24T13:19:52;8.33;;;6.20;;
3379;SDS011;1703;51.964;7.642;2022-07-24T13:22:19;8.50;;;7.60;;
3379;SDS011;1703;51.964;7.642;2022-07-24T13:24:46;10.27;;;7.13;;
3379;SDS011;1703;51.964;7.642;2022-07-24T13:27:13;8.60;;;6.50;;
3379;SDS011;1703;51.964;7.642;2022-07-24T13:29:42;8.03;;;6.67;;
3379;SDS011;1703;51.964;7.642;2022-07-24T13:32:09;7.97;;;7.00;;
3379;SDS011;1703;51.964;7.642;2022-07-24T13:34:36;7.63;;;6.93;;
3379;SDS011;1703;51.964;7.642;2022-07-24T13:37:04;9.37;;;8.23;;
3379;SDS011;1703;51.964;7.642;2022-07-24T13:39:31;7.63;;;7.03;;
3379;SDS011;1703;51.964;7.642;2022-07-24T13:41:58;7.67;;;7.07;;
3379;SDS011;1703;51.964;7.642;2022-07-24T13:44:25;6.87;;;5.67;;
3379;SDS011;1703;51.964;7.642;2022-07-24T13:46:52;8.13;;;6.88;;
3379;SDS011;1703;51.964;7.642;2022-07-24T13:49:18;8.17;;;7.43;;
3379;SDS011;1703;51.964;7.642;2022-07-24T13:51:45;8.63;;;7.82;;
3379;SDS011;1703;51.964;7.642;2022-07-24T13:54:14;8.30;;;7.50;;
3379;SDS011;1703;51.964;7.642;2022-07-24T13:56:41;7.22;;;6.53;;
3379;SDS011;1703;51.964;7.642;2022-07-24T13:59:09;7.85;;;7.20;;
3379;SDS011;1703;51.964;7.642;2022-07-24T14:01:36;8.57;;;7.78;;
3379;SDS011;1703;51.964;7.642;2022-07-24T14:04:03;8.07;;;6.85;;
3379;SDS011;1703;51.964;7.642;2022-07-24T14:06:33;6.53;;;5.90;;
3379;SDS011;1703;51.964;7.642;2022-07-24T14:09:00;8.23;;;7.40;;
3379;SDS011;1703;51.964;7.642;2022-07-24T14:11:29;8.38;;;7.53;;
3379;SDS011;1703;51.964;7.642;2022-07-24T14:13:56;6.40;;;5.80;;
3379;SDS011;1703;51.964;7.642;2022-07-24T14:16:23;7.23;;;6.63;;
3379;SDS011;1703;51.964;7.642;2022-07-24T14:18:49;7.83;;;6.70;;
3379;SDS011;1703;51.964;7.642;2022-07-24T14:21:16;7.23;;;6.57;;
3379;SDS011;1703;51.964;7.642;2022-07-24T14:23:43;8.10;;;7.40;;
3379;SDS011;1703;51.964;7.642;2022-07-24T14:26:10;10.07;;;6.83;;
3379;SDS011;1703;51.964;7.642;2022-07-24T14:28:38;9.63;;;7.33;;
3379;SDS011;1703;51.964;7.642;2022-07-24T14:31:05;11.20;;;7.50;;
3379;SDS011;1703;51.964;7.642;2022-07-24T14:33:32;7.13;;;6.53;;
3379;SDS011;1703;51.964;7.642;2022-07-24T14:36:00;15.10;;;7.50;;
3379;SDS011;1703;51.964;7.642;2022-07-24T14:38:27;7.23;;;6.57;;
3379;SDS011;1703;51.964;7.642;2022-07-24T14:40:53;8.03;;;6.70;;
3379;SDS011;1703;51.964;7.642;2022-07-24T14:43:20;7.10;;;6.60;;
3379;SDS011;1703;51.964;7.642;2022-07-24T14:45:48;9.57;;;7.43;;
3379;SDS011;1703;51.964;7.642;2022-07-24T14:48:15;7.73;;;7.13;;
3379;SDS011;1703;51.964;7.642;2022-07-24T14:50:42;7.17;;;6.47;;
3379;SDS011;1703;51.964;7.642;2022-07-24T14:53:08;11.23;;;6.90;;
3379;SDS011;1703;51.964;7.642;2022-07-24T14:55:35;7.50;;;6.80;;
3379;SDS011;1703;51.964;7.642;2022-07-24T14:58:02;7.13;;;6.53;;
3379;SDS011;1703;51.964;7.642;2022-07-24T15:03:07;7.60;;;6.80;;
3379;SDS011;1703;51.964;7.642;2022-07-24T15:05:33;7.83;;;7.13;;
3379;SDS011;1703;51.964;7.642;2022-07-24T15:08:05;7.27;;;6.63;;
3379;SDS011;1703;51.964;7.642;2022-07-24T15:10:32;8.00;;;7.20;;
3379;SDS011;1703;51.964;7.642;2022-07-24T15:12:59;7.40;;;6.80;;
3379;SDS011;1703;51.964;7.642;2022-07-24T15:15:27;6.60;;;6.00;;
3379;SDS011;1703;51.964;7.642;2022-07-24T15:17:53;7.27;;;6.77;;
3379;SDS011;1703;51.964;7.642;2022-07-24T15:20:21;10.83;;;6.80;;
3379;SDS011;1703;51.964;7.642;2022-07-24T15:22:48;7.30;;;6.60;;
3379;SDS011;1703;51.964;7.642;2022-07-24T15:25:15;7.10;;;6.37;;
3379;SDS011;1703;51.964;7.642;2022-07-24T15:27:42;7.17;;;6.47;;
3379;SDS011;1703;51.964;7.642;2022-07-24T15:30:10;6.57;;;5.90;;
3379;SDS011;1703;51.964;7.642;2022-07-24T15:32:42;7.30;;;5.63;;
3379;SDS011;1703;51.964;7.642;2022-07-24T15:35:09;6.97;;;6.40;;
3379;SDS011;1703;51.964;7.642;2022-07-24T15:37:38;7.87;;;6.80;;
3379;SDS011;1703;51.964;7.642;2022-07-24T15:40:05;6.70;;;6.20;;
3379;SDS011;1703;51.964;7.642;2022-07-24T15:42:32;6.10;;;5.50;;
3379;SDS011;1703;51.964;7.642;2022-07-24T15:44:59;6.97;;;5.33;;
3379;SDS011;1703;51.964;7.642;2022-07-24T15:47:26;6.90;;;6.30;;